Time;durP1;ratioP1;P1;durP2;ratioP2;P2;SDS_P1;SDS_P2;PMS_P1;PMS_P2;Temp;Humidity;BMP_temperature;BMP_pressure;BME280_temperature;BME280_humidity;BME280_pressure;Samples;Min_cycle;Max_cycle;Signal;HPM_P1;HPM_P2
2022/06/11 00:01:19;;;;;;;36.08;27.02;;;20.10;99.90;;;;;;5270662;28;20449;-80
2022/06/11 00:03:53;;;;;;;37.38;29.10;;;20.20;99.90;;;;;;5271750;28;20016;-80
2022/06/11 00:06:25;;;;;;;31.25;24.98;;;20.10;99.90;;;;;;5270508;28;20548;-80
2022/06/11 00:08:57;;;;;;;32.00;27.48;;;20.10;99.90;;;;;;5270932;28;20030;-81
2022/06/11 00:11:27;;;;;;;40.45;27.02;;;20.20;99.90;;;;;;5271531;28;20098;-85
2022/06/11 00:13:58;;;;;;;42.85;26.98;;;20.10;99.90;;;;;;5271608;28;20519;-80
2022/06/11 00:16:29;;;;;;;35.00;27.00;;;20.20;99.90;;;;;;5270307;28;20047;-81
2022/06/11 00:19:02;;;;;;;39.67;26.05;;;20.10;99.90;;;;;;5271513;28;20030;-80
2022/06/11 00:21:37;;;;;;;35.20;26.20;;;20.10;99.90;;;;;;5270009;28;20075;-81
2022/06/11 00:24:09;;;;;;;40.17;28.80;;;20.20;99.90;;;;;;5269992;28;20086;-81
2022/06/11 00:26:42;;;;;;;36.42;26.23;;;20.20;99.90;;;;;;5271316;28;20067;-85
2022/06/11 00:29:15;;;;;;;31.48;25.10;;;20.10;99.90;;;;;;5270046;28;20460;-80
2022/06/11 00:31:46;;;;;;;33.58;26.48;;;20.10;99.90;;;;;;5271272;28;20035;-81
2022/06/11 00:34:18;;;;;;;35.72;26.50;;;20.10;99.90;;;;;;5269906;28;20024;-81
2022/06/11 00:36:50;;;;;;;38.03;26.25;;;20.10;99.90;;;;;;5269874;28;20035;-81
2022/06/11 00:39:25;;;;;;;30.73;24.50;;;20.20;99.90;;;;;;5269780;28;20019;-81
2022/06/11 00:42:02;;;;;;;37.92;25.70;;;20.20;99.90;;;;;;5270846;28;20044;-80
2022/06/11 00:44:33;;;;;;;36.92;26.80;;;20.10;99.90;;;;;;5269856;28;20020;-81
2022/06/11 00:47:13;;;;;;;32.72;25.20;;;20.10;99.90;;;;;;5270998;28;20028;-81
2022/06/11 00:49:46;;;;;;;36.45;25.88;;;20.20;99.90;;;;;;5269496;28;20032;-80
2022/06/11 00:52:19;;;;;;;34.35;24.83;;;20.20;99.90;;;;;;5270670;28;20075;-81
2022/06/11 00:55:24;;;;;;;37.92;24.23;;;20.20;99.90;;;;;;5271027;28;20467;-80
2022/06/11 00:58:04;;;;;;;36.58;27.35;;;20.20;99.90;;;;;;5270896;28;20530;-85
2022/06/11 01:00:41;;;;;;;36.08;28.90;;;20.20;99.90;;;;;;5270595;28;20028;-81
2022/06/11 01:03:17;;;;;;;34.60;26.60;;;20.20;99.90;;;;;;5269311;28;20358;-80
2022/06/11 01:05:58;;;;;;;31.83;25.15;;;20.20;99.90;;;;;;5269353;28;20475;-85
2022/06/11 01:08:38;;;;;;;34.60;22.30;;;20.20;99.90;;;;;;5269021;28;20032;-84
2022/06/11 01:11:20;;;;;;;35.10;26.90;;;20.20;99.90;;;;;;5270424;28;20020;-81
2022/06/11 01:14:12;;;;;;;35.22;25.80;;;20.20;99.90;;;;;;5270482;28;20043;-81
2022/06/11 01:17:06;;;;;;;32.92;26.42;;;20.30;99.90;;;;;;5270464;28;20384;-80
2022/06/11 01:19:46;;;;;;;41.10;27.63;;;20.30;99.90;;;;;;5268903;28;20483;-81
2022/06/11 01:22:30;;;;;;;33.80;26.30;;;20.20;99.90;;;;;;5269352;28;20040;-81
2022/06/11 01:25:16;;;;;;;38.13;27.38;;;20.20;99.90;;;;;;5268884;28;20024;-82
2022/06/11 01:28:13;;;;;;;39.58;28.02;;;20.20;99.90;;;;;;5270193;28;20596;-81
2022/06/11 01:30:59;;;;;;;38.75;27.83;;;20.20;99.90;;;;;;5270131;28;20107;-81
2022/06/11 01:33:58;;;;;;;45.10;28.08;;;20.30;99.90;;;;;;5268823;28;20028;-81
2022/06/11 01:36:35;;;;;;;36.97;28.70;;;20.20;99.90;;;;;;5268731;28;20451;-80
2022/06/11 01:39:20;;;;;;;34.47;26.42;;;20.30;99.90;;;;;;5269972;28;20024;-82
2022/06/11 01:42:00;;;;;;;32.58;25.83;;;20.20;99.90;;;;;;5268515;28;20437;-82
2022/06/11 01:44:38;;;;;;;44.15;28.17;;;20.30;99.90;;;;;;5268399;28;20024;-82
2022/06/11 01:47:13;;;;;;;38.80;26.70;;;20.20;99.90;;;;;;5268486;28;20047;-80
2022/06/11 01:49:47;;;;;;;41.42;26.70;;;20.30;99.90;;;;;;5269467;28;20099;-81
2022/06/11 01:52:49;;;;;;;37.50;26.70;;;20.30;99.90;;;;;;5268218;28;20051;-82
2022/06/11 01:55:29;;;;;;;44.65;28.15;;;20.30;99.90;;;;;;5268288;28;20483;-81
2022/06/11 01:58:27;;;;;;;40.47;26.52;;;20.30;99.90;;;;;;5269606;28;20111;-81
2022/06/11 02:01:07;;;;;;;40.97;28.00;;;20.30;99.90;;;;;;5269361;28;20032;-81
2022/06/11 02:04:05;;;;;;;37.80;26.20;;;20.30;99.90;;;;;;5269412;28;20096;-81
2022/06/11 02:06:59;;;;;;;40.63;27.25;;;20.30;99.90;;;;;;5269429;28;20035;-80
2022/06/11 02:09:56;;;;;;;38.35;26.85;;;20.30;99.90;;;;;;5259788;28;20077;-80
2022/06/11 02:12:34;;;;;;;37.75;26.98;;;20.30;99.90;;;;;;5268037;28;20021;-81
2022/06/11 02:15:13;;;;;;;38.45;26.50;;;20.30;99.90;;;;;;5269307;28;20031;-80
2022/06/11 02:17:48;;;;;;;37.85;27.58;;;20.30;99.90;;;;;;5269276;28;20024;-81
2022/06/11 02:20:28;;;;;;;39.72;28.33;;;20.30;99.90;;;;;;5269027;28;20044;-81
2022/06/11 02:23:02;;;;;;;;;;;20.20;99.90;;;;;;5268203;28;20028;-81
2022/06/11 02:25:41;;;;;;;;;;;20.10;99.90;;;;;;5268406;28;19911;-81
2022/06/11 02:28:14;;;;;;;;;;;20.10;99.90;;;;;;5268130;28;19911;-81
2022/06/11 02:30:46;;;;;;;;;;;19.90;99.90;;;;;;5269443;28;19990;-80
2022/06/11 02:33:18;;;;;;;;;;;19.90;99.90;;;;;;5267870;28;19904;-81
2022/06/11 02:35:49;;;;;;;;;;;20.00;99.90;;;;;;5269401;28;19960;-80
2022/06/11 02:38:21;;;;;;;;;;;20.00;99.90;;;;;;5269458;28;19983;-81
2022/06/11 02:40:54;;;;;;;;;;;20.10;99.90;;;;;;5267856;28;19920;-80
2022/06/11 02:43:25;;;;;;;;;;;20.10;99.90;;;;;;5269642;28;19941;-81
2022/06/11 02:45:56;;;;;;;;;;;20.10;99.90;;;;;;5269370;28;19959;-81
2022/06/11 02:48:27;;;;;;;;;;;20.10;99.90;;;;;;5267700;28;20442;-81
2022/06/11 02:50:57;;;;;;;;;;;20.00;99.90;;;;;;5268657;28;19973;-80
2022/06/11 02:53:30;;;;;;;;;;;20.00;99.90;;;;;;5269196;28;19924;-81
2022/06/11 02:56:00;;;;;;;;;;;20.10;99.90;;;;;;5268806;28;19908;-81
2022/06/11 02:58:31;;;;;;;;;;;20.10;99.90;;;;;;5269202;28;19903;-80
2022/06/11 03:01:01;;;;;;;;;;;20.10;99.90;;;;;;5269042;28;19930;-80
2022/06/11 03:03:33;;;;;;;;;;;20.00;99.90;;;;;;5269058;28;19911;-80
2022/06/11 03:06:04;;;;;;;;;;;20.00;99.90;;;;;;5267910;28;19911;-80
2022/06/11 03:08:35;;;;;;;;;;;20.00;99.90;;;;;;5267749;28;20309;-80
2022/06/11 03:11:05;;;;;;;;;;;20.00;99.90;;;;;;5269012;28;19943;-80
2022/06/11 03:13:36;;;;;;;;;;;20.10;99.90;;;;;;5269086;28;19957;-80
2022/06/11 03:16:07;;;;;;;;;;;20.00;99.90;;;;;;5269061;28;19904;-80
2022/06/11 03:18:38;;;;;;;;;;;20.10;99.90;;;;;;5269000;28;19922;-80
2022/06/11 03:21:09;;;;;;;;;;;20.10;99.90;;;;;;5268721;28;19915;-80
2022/06/11 03:23:39;;;;;;;;;;;20.10;99.90;;;;;;5267642;28;20006;-80
2022/06/11 03:26:10;;;;;;;;;;;20.10;99.90;;;;;;5268689;28;19904;-80
2022/06/11 03:28:41;;;;;;;;;;;20.10;99.90;;;;;;5268621;28;19910;-80
2022/06/11 03:31:12;;;;;;;;;;;20.20;99.90;;;;;;5268802;28;19904;-80
2022/06/11 03:33:43;;;;;;;;;;;20.10;99.90;;;;;;5267246;28;19904;-80
2022/06/11 03:36:15;;;;;;;;;;;20.20;99.90;;;;;;5267467;28;19957;-80
2022/06/11 03:38:46;;;;;;;;;;;20.20;99.90;;;;;;5268908;28;19904;-80
2022/06/11 03:41:17;;;;;;;;;;;20.20;99.90;;;;;;5268661;28;19911;-80
2022/06/11 03:43:49;;;;;;;;;;;20.20;99.90;;;;;;5267954;28;20373;-80
2022/06/11 03:46:20;;;;;;;;;;;20.20;99.90;;;;;;5271060;28;19900;-80
2022/06/11 03:48:51;;;;;;;;;;;20.30;99.90;;;;;;5272589;28;19911;-80
2022/06/11 03:51:22;;;;;;;;;;;20.30;99.90;;;;;;5272207;28;19916;-80
2022/06/11 03:53:54;;;;;;;;;;;20.30;99.90;;;;;;5271391;28;19912;-80
2022/06/11 03:56:25;;;;;;;;;;;20.30;99.90;;;;;;5272465;28;20367;-80
2022/06/11 03:58:56;;;;;;;;;;;20.40;99.90;;;;;;5271164;28;19904;-80
2022/06/11 04:01:28;;;;;;;;;;;20.30;99.90;;;;;;5272334;28;19943;-80
2022/06/11 04:04:01;;;;;;;;;;;20.40;99.90;;;;;;5272267;28;20005;-80
2022/06/11 04:06:33;;;;;;;;;;;20.40;99.90;;;;;;5272248;28;19907;-80
2022/06/11 04:09:06;;;;;;;;;;;20.30;99.90;;;;;;5272286;28;19945;-80
2022/06/11 04:11:37;;;;;;;;;;;20.20;99.90;;;;;;5270840;28;20367;-80
2022/06/11 04:14:08;;;;;;;;;;;20.30;99.90;;;;;;5270549;28;19993;-80
2022/06/11 04:16:43;;;;;;;;;;;20.30;99.90;;;;;;5272159;28;19911;-80
2022/06/11 04:19:15;;;;;;;;;;;20.30;99.90;;;;;;5270730;28;19907;-80
2022/06/11 04:21:47;;;;;;;;;;;20.40;99.90;;;;;;5271813;28;20355;-80
2022/06/11 04:24:18;;;;;;;;;;;20.40;99.90;;;;;;5270646;28;19912;-80
2022/06/11 04:26:50;;;;;;;;;;;20.50;99.90;;;;;;5270337;28;19911;-80
2022/06/11 04:29:22;;;;;;;;;;;20.50;99.90;;;;;;5271832;28;19912;-80
2022/06/11 04:31:53;;;;;;;;;;;20.50;99.90;;;;;;5271842;28;19986;-80
2022/06/11 04:34:25;;;;;;;;;;;20.50;99.90;;;;;;5271682;28;19991;-80
2022/06/11 04:36:56;;;;;;;;;;;20.60;99.90;;;;;;5270488;28;19915;-81
2022/06/11 04:39:29;;;;;;;;;;;20.70;99.90;;;;;;5270295;28;19910;-80
2022/06/11 04:42:00;;;;;;;;;;;20.60;99.90;;;;;;5271472;28;19912;-80
2022/06/11 04:44:30;;;;;;;;;;;20.70;99.90;;;;;;5271420;28;20351;-80
2022/06/11 04:47:01;;;;;;;;;;;20.60;99.90;;;;;;5271183;28;19908;-81
2022/06/11 04:49:32;;;;;;;;;;;20.70;99.90;;;;;;5269958;28;19995;-80
2022/06/11 04:52:03;;;;;;;;;;;20.70;99.90;;;;;;5271228;28;19973;-80
2022/06/11 04:54:34;;;;;;;;;;;20.70;99.90;;;;;;5271131;28;19904;-80
2022/06/11 04:57:05;;;;;;;;;;;20.70;99.90;;;;;;5269998;28;20263;-81
2022/06/11 04:59:35;;;;;;;;;;;20.70;99.90;;;;;;5269887;28;20423;-80
2022/06/11 05:02:06;;;;;;;;;;;20.70;99.90;;;;;;5269638;28;20002;-80
2022/06/11 05:04:37;;;;;;;;;;;20.80;99.90;;;;;;5269849;28;19904;-80
2022/06/11 05:07:07;;;;;;;;;;;20.80;99.90;;;;;;5271096;28;19904;-80
2022/06/11 05:09:38;;;;;;;;;;;20.70;99.90;;;;;;5269696;28;19904;-80
2022/06/11 05:12:10;;;;;;;;;;;20.70;99.90;;;;;;5270904;28;19911;-80
2022/06/11 05:14:41;;;;;;;;;;;20.70;99.90;;;;;;5269576;28;19911;-80
2022/06/11 05:17:12;;;;;;;;;;;20.70;99.90;;;;;;5270845;28;19951;-81
2022/06/11 05:19:42;;;;;;;;;;;20.70;99.90;;;;;;5270594;28;19962;-81
2022/06/11 05:22:13;;;;;;;;;;;20.80;99.90;;;;;;5269225;28;19963;-81
2022/06/11 05:24:43;;;;;;;;;;;20.70;99.90;;;;;;5269435;28;19995;-80
2022/06/11 05:27:16;;;;;;;;;;;20.80;99.90;;;;;;5270675;28;19908;-81
2022/06/11 05:29:52;;;;;;;;;;;20.80;99.90;;;;;;5270574;28;19911;-81
2022/06/11 05:32:27;;;;;;;;;;;20.70;99.90;;;;;;5269308;28;20370;-81
2022/06/11 05:34:57;;;;;;;;;;;20.80;99.90;;;;;;5270437;28;19987;-80
2022/06/11 05:37:28;;;;;;;;;;;20.80;99.90;;;;;;5270488;28;19999;-80
2022/06/11 05:39:59;;;;;;;;;;;20.80;99.90;;;;;;5269972;28;19908;-81
2022/06/11 05:42:30;;;;;;;;;;;20.80;99.90;;;;;;5269895;28;19918;-81
2022/06/11 05:45:00;;;;;;;;;;;20.80;99.90;;;;;;5270330;28;19999;-80
2022/06/11 05:47:31;;;;;;;;;;;20.70;99.90;;;;;;5270285;28;20304;-81
2022/06/11 05:50:03;;;;;;;;;;;20.70;99.90;;;;;;5268641;28;19999;-81
2022/06/11 05:52:36;;;;;;;;;;;20.70;99.90;;;;;;5268915;28;19959;-81
2022/06/11 05:55:09;;;;;;;;;;;20.70;99.90;;;;;;5268975;28;20349;-81
2022/06/11 05:57:39;;;;;;;;;;;20.70;99.90;;;;;;5270030;28;19904;-81
2022/06/11 06:00:12;;;;;;;;;;;20.80;99.90;;;;;;5269727;28;19930;-81
2022/06/11 06:02:44;;;;;;;;;;;20.70;99.90;;;;;;5268439;28;19912;-81
2022/06/11 06:05:18;;;;;;;;;;;20.70;99.90;;;;;;5268738;28;19904;-80
2022/06/11 06:07:49;;;;;;;;;;;20.70;99.90;;;;;;5268990;28;19900;-81
2022/06/11 06:10:19;;;;;;;;;;;20.70;99.90;;;;;;5269697;28;20057;-81
2022/06/11 06:12:50;;;;;;;;;;;20.70;99.90;;;;;;5268428;28;20251;-81
2022/06/11 06:15:23;;;;;;;;;;;20.70;99.90;;;;;;5269821;28;20006;-81
2022/06/11 06:17:54;;;;;;;;;;;20.80;99.90;;;;;;5269703;28;19901;-80
2022/06/11 06:20:25;;;;;;;;;;;20.70;99.90;;;;;;5268241;28;19953;-81
2022/06/11 06:22:55;;;;;;;;;;;20.70;99.90;;;;;;5269294;28;19916;-81
2022/06/11 06:25:26;;;;;;;;;;;20.70;99.90;;;;;;5268292;28;19973;-81
2022/06/11 06:27:57;;;;;;;;;;;20.80;99.90;;;;;;5267972;28;19965;-81
2022/06/11 06:30:27;;;;;;;;;;;20.80;99.90;;;;;;5269469;28;19908;-81
2022/06/11 06:32:58;;;;;;;;;;;20.80;99.90;;;;;;5269604;28;19915;-81
2022/06/11 06:35:28;;;;;;;;;;;20.80;99.90;;;;;;5269434;28;19911;-81
2022/06/11 06:37:59;;;;;;;;;;;20.70;99.90;;;;;;5269388;28;20335;-81
2022/06/11 06:40:30;;;;;;;;;;;20.80;99.90;;;;;;5269316;28;20350;-81
2022/06/11 06:43:01;;;;;;;;;;;20.80;99.90;;;;;;5269208;28;19912;-81
2022/06/11 06:45:31;;;;;;;;;;;20.80;99.90;;;;;;5269110;28;20399;-81
2022/06/11 06:48:02;;;;;;;;;;;20.80;99.90;;;;;;5268005;28;19908;-81
2022/06/11 06:50:33;;;;;;;;;;;20.90;99.90;;;;;;5267656;28;19916;-81
2022/06/11 06:53:04;;;;;;;;;;;20.80;99.90;;;;;;5267828;28;19908;-80
2022/06/11 06:55:35;;;;;;;;;;;21.00;99.90;;;;;;5267973;28;19904;-80
2022/06/11 06:58:06;;;;;;;;;;;21.00;99.90;;;;;;5267697;28;19904;-81
2022/06/11 07:00:36;;;;;;;;;;;21.20;99.90;;;;;;5267513;28;19901;-81
2022/06/11 07:03:07;;;;;;;;;;;21.10;99.90;;;;;;5267712;28;20305;-80
2022/06/11 07:05:38;;;;;;;;;;;21.30;99.90;;;;;;5269021;28;19910;-81
2022/06/11 07:08:10;;;;;;;;;;;21.30;99.90;;;;;;5268896;28;19904;-81
2022/06/11 07:10:45;;;;;;;;;;;21.20;99.90;;;;;;5268947;28;19904;-81
2022/06/11 07:13:16;;;;;;;;;;;21.10;99.90;;;;;;5267773;28;19904;-81
2022/06/11 07:15:48;;;;;;;;;;;21.20;99.90;;;;;;5269088;28;20309;-81
2022/06/11 07:18:26;;;;;;;;;;;21.10;99.90;;;;;;5270134;28;19904;-81
2022/06/11 07:20:57;;;;;;;;;;;21.10;99.90;;;;;;5272965;28;20355;-81
2022/06/11 07:23:37;;;;;;;;;;;21.30;99.90;;;;;;5273055;28;19908;-81
2022/06/11 07:26:11;;;;;;;;;;;21.30;99.90;;;;;;5271855;28;19948;-80
2022/06/11 07:28:47;;;;;;;;;;;21.30;99.90;;;;;;5273110;28;20369;-80
2022/06/11 07:31:18;;;;;;;;;;;21.20;99.90;;;;;;5271707;28;19949;-81
2022/06/11 07:33:49;;;;;;;;;;;21.30;99.90;;;;;;5271717;28;19912;-81
2022/06/11 07:36:20;;;;;;;;;;;21.20;99.90;;;;;;5271645;28;19904;-80
2022/06/11 07:38:51;;;;;;;;;;;21.00;99.90;;;;;;5272578;28;19911;-81
2022/06/11 07:41:21;;;;;;;;;;;21.00;99.90;;;;;;5272558;28;19916;-81
2022/06/11 07:43:52;;;;;;;;;;;21.00;99.90;;;;;;5271291;28;19966;-81
2022/06/11 07:46:22;;;;;;;;;;;20.90;99.90;;;;;;5272523;28;20279;-80
2022/06/11 07:48:53;;;;;;;;;;;20.90;99.90;;;;;;5271406;28;19969;-80
2022/06/11 07:51:24;;;;;;;;;;;20.80;99.90;;;;;;5271019;28;19923;-81
2022/06/11 07:53:54;;;;;;;;;;;20.90;99.90;;;;;;5272506;28;19915;-82
2022/06/11 07:56:25;;;;;;;;;;;20.90;99.90;;;;;;5272464;28;19900;-81
2022/06/11 07:58:56;;;;;;;;;;;20.90;99.90;;;;;;5272470;28;19904;-80
2022/06/11 08:01:26;;;;;;;;;;;20.90;99.90;;;;;;5272330;28;19915;-80
2022/06/11 08:03:57;;;;;;;;;;;20.90;99.90;;;;;;5271926;28;19904;-80
2022/06/11 08:06:27;;;;;;;;;;;21.00;99.90;;;;;;5272012;28;19900;-80
2022/06/11 08:08:58;;;;;;;;;;;21.00;99.90;;;;;;5272229;28;19904;-80
2022/06/11 08:11:29;;;;;;;;;;;20.90;99.90;;;;;;5272122;28;19904;-80
2022/06/11 08:14:00;;;;;;;;;;;20.90;99.90;;;;;;5270661;28;19957;-80
2022/06/11 08:16:30;;;;;;;;;;;20.90;99.90;;;;;;5271959;28;19915;-80
2022/06/11 08:19:01;;;;;;;;;;;20.90;99.90;;;;;;5272114;28;19904;-80
2022/06/11 08:21:32;;;;;;;;;;;21.00;99.90;;;;;;5271874;28;20339;-80
2022/06/11 08:24:02;;;;;;;;;;;21.00;99.90;;;;;;5271753;28;19913;-80
2022/06/11 08:26:34;;;;;;;;;;;20.90;99.90;;;;;;5271932;28;19910;-80
2022/06/11 08:29:04;;;;;;;;;;;20.80;99.90;;;;;;5271793;28;19908;-79
2022/06/11 08:31:35;;;;;;;;;;;20.70;99.90;;;;;;5270069;28;20279;-80
2022/06/11 08:34:06;;;;;;;;;;;20.80;99.90;;;;;;5271674;28;19908;-79
2022/06/11 08:36:36;;;;;;;;;;;20.90;99.90;;;;;;5271532;28;19908;-80
2022/06/11 08:39:07;;;;;;;;;;;21.10;99.90;;;;;;5271702;28;19950;-80
2022/06/11 08:41:37;;;;;;;;;;;21.10;99.90;;;;;;5271495;28;20007;-80
2022/06/11 08:44:10;;;;;;;;;;;21.50;99.90;;;;;;5270103;28;20359;-80
2022/06/11 08:46:43;;;;;;;;;;;21.60;99.90;;;;;;5269822;28;19904;-80
2022/06/11 08:49:32;;;;;;;;;;;21.80;99.90;;;;;;5271239;28;19904;-80
2022/06/11 08:52:12;;;;;;;;;;;21.60;99.90;;;;;;5269959;28;19920;-80
2022/06/11 08:54:44;;;;;;;;;;;21.50;99.90;;;;;;5270069;28;19910;-80
2022/06/11 08:57:25;;;;;;;;;;;21.60;99.90;;;;;;5269907;28;19908;-80
2022/06/11 09:00:02;;;;;;;;;;;21.50;99.90;;;;;;5271306;28;19908;-80
2022/06/11 09:02:51;;;;;;;;;;;21.80;99.90;;;;;;5269664;28;19912;-80
2022/06/11 09:05:41;;;;;;;;;;;21.90;99.90;;;;;;5269936;28;19958;-79
2022/06/11 09:08:24;;;;;;;;;;;21.60;99.90;;;;;;5271189;28;20259;-79
2022/06/11 09:11:13;;;;;;;;;;;21.50;99.90;;;;;;5269571;28;19908;-79
2022/06/11 09:13:43;;;;;;;;;;;21.50;99.90;;;;;;5269632;28;20306;-80
2022/06/11 09:16:17;;;;;;;;;;;21.30;99.90;;;;;;5269594;28;19908;-80
2022/06/11 09:19:03;;;;;;;;;;;21.10;99.90;;;;;;5270803;28;19900;-79
2022/06/11 09:21:40;;;;;;;;;;;21.00;99.90;;;;;;5269371;28;20011;-79
2022/06/11 09:24:13;;;;;;;;;;;21.00;99.90;;;;;;5270686;28;20415;-80
2022/06/11 09:26:44;;;;;;;;;;;21.00;99.90;;;;;;5269466;28;19904;-79
2022/06/11 09:29:24;;;;;;;;;;;21.10;99.90;;;;;;5269331;28;19904;-79
2022/06/11 09:32:07;;;;;;;;;;;20.80;99.90;;;;;;5270575;28;19904;-80
2022/06/11 09:34:38;;;;;;;;;;;21.00;99.90;;;;;;5270539;28;19973;-80
2022/06/11 09:37:08;;;;;;;;;;;21.00;99.90;;;;;;5270531;28;19904;-80
2022/06/11 09:39:41;;;;;;;;;;;21.00;99.90;;;;;;5268991;28;19904;-80
2022/06/11 09:42:18;;;;;;;;;;;21.00;99.90;;;;;;5269259;28;19912;-79
2022/06/11 09:44:48;;;;;;;;;;;20.80;99.90;;;;;;5270365;28;19908;-79
2022/06/11 09:47:32;;;;;;;;;;;20.80;99.90;;;;;;5278143;28;20271;-79
2022/06/11 09:50:22;;;;;;;;;;;20.90;99.90;;;;;;5286360;28;19908;-81
2022/06/11 09:53:12;;;;;;;;;;;21.00;99.90;;;;;;5270665;28;19955;-81
2022/06/11 09:55:49;;;;;;;;;;;20.70;99.90;;;;;;5277183;28;19904;-79
2022/06/11 09:58:19;;;;;;;;;;;20.70;99.90;;;;;;5283955;28;19915;-81
2022/06/11 10:00:56;;;;;;;;;;;20.70;99.90;;;;;;5270383;28;19904;-79
2022/06/11 10:03:35;;;;;;;;;;;20.70;99.90;;;;;;5268975;28;19919;-78
2022/06/11 10:06:14;;;;;;;;;;;20.70;99.90;;;;;;5269122;28;20484;-79
2022/06/11 10:09:03;;;;;;;;;;;20.50;99.90;;;;;;5285081;28;19908;-84
2022/06/11 10:11:44;;;;;;;;;;;20.50;99.90;;;;;;5291297;28;19911;-82
2022/06/11 10:14:30;;;;;;;;;;;20.40;99.90;;;;;;5290032;28;20359;-82
2022/06/11 10:17:25;;;;;;;;;;;20.40;99.90;;;;;;5286752;28;19912;-80
2022/06/11 10:20:03;;;;;;;;;;;20.30;99.90;;;;;;5273227;28;20260;-83
2022/06/11 10:22:52;;;;;;;;;;;20.20;99.90;;;;;;5278767;28;19946;-79
2022/06/11 10:25:34;;;;;;;;;;;20.20;99.90;;;;;;5278050;28;20363;-82
2022/06/11 10:28:05;;;;;;;;;;;20.30;99.90;;;;;;5274758;28;19903;-77
2022/06/11 10:30:49;;;;;;;;;;;20.30;99.90;;;;;;5290399;27;20406;-83
2022/06/11 10:33:24;;;;;;;;;;;20.30;99.90;;;;;;5272574;28;19904;-81
2022/06/11 10:36:05;;;;;;;;;;;20.20;99.90;;;;;;5282420;28;20002;-84
2022/06/11 10:38:40;;;;;;;;;;;20.20;99.90;;;;;;5289724;28;20346;-82
2022/06/11 10:41:16;;;;;;;;;;;20.30;99.90;;;;;;5290808;28;19908;-80
2022/06/11 10:43:51;;;;;;;;;;;20.20;99.90;;;;;;5276259;28;19973;-81
2022/06/11 10:46:23;;;;;;;;;;;20.10;99.90;;;;;;5269877;28;20256;-79
2022/06/11 10:48:53;;;;;;;;;;;20.10;99.90;;;;;;5268724;28;19904;-90
2022/06/11 10:51:29;;;;;;;;;;;20.10;99.90;;;;;;5268002;28;20321;-79
2022/06/11 10:54:20;;;;;;;;;;;20.00;99.90;;;;;;5269814;28;19934;-81
2022/06/11 10:56:57;;;;;;;;;;;20.00;99.90;;;;;;5269840;28;19904;-84
2022/06/11 10:59:43;;;;;;;;;;;20.00;99.90;;;;;;5269550;28;19911;-85
2022/06/11 11:02:40;;;;;;;;;;;20.20;99.90;;;;;;5269621;28;20349;-85
2022/06/11 11:05:12;;;;;;;;;;;20.10;99.90;;;;;;5268466;28;19904;-81
2022/06/11 11:07:49;;;;;;;;;;;20.00;99.90;;;;;;5268223;28;19911;-82
2022/06/11 11:10:21;;;;;;;;;;;20.00;99.90;;;;;;5269471;28;19912;-81
2022/06/11 11:12:55;;;;;;;;;;;20.10;99.90;;;;;;5268184;28;19911;-83
2022/06/11 11:15:28;;;;;;;;;;;20.30;99.90;;;;;;5269547;28;19904;-83
2022/06/11 11:18:08;;;;;;;;;;;20.10;99.90;;;;;;5268358;28;20351;-85
2022/06/11 11:20:43;;;;;;;;;;;20.10;99.90;;;;;;5269731;28;19908;-86
2022/06/11 11:23:15;;;;;;;;;;;20.00;99.90;;;;;;5268095;28;19923;-81
2022/06/11 11:25:46;;;;;;;;;;;19.90;99.90;;;;;;5285012;28;19904;-84
2022/06/11 11:28:29;;;;;;;;;;;20.00;99.90;;;;;;5290440;28;20382;-83
2022/06/11 11:31:15;;;;;;;;;;;20.00;99.90;;;;;;5289025;28;19903;-81
2022/06/11 11:33:58;;;;;;;;;;;20.00;99.90;;;;;;5286187;28;19904;-83
2022/06/11 11:36:30;;;;;;;;;;;20.10;99.90;;;;;;5290572;28;19943;-84
2022/06/11 11:39:12;;;;;;;;;;;20.00;99.90;;;;;;5288917;28;19950;-81
2022/06/11 11:41:49;;;;;;;;;;;20.20;99.90;;;;;;5289176;28;19935;-85
2022/06/11 11:44:21;;;;;;;;;;;20.00;99.90;;;;;;5288827;28;19911;-83
2022/06/11 11:46:53;;;;;;;;;;;20.10;99.90;;;;;;5289989;28;19911;-87
2022/06/11 11:49:29;;;;;;;;;;;19.90;99.90;;;;;;5290141;28;19903;-81
2022/06/11 11:52:10;;;;;;;;;;;20.10;99.90;;;;;;5288667;28;19916;-82
2022/06/11 11:54:49;;;;;;;;;;;20.00;99.90;;;;;;5289112;28;20002;-86
2022/06/11 11:57:20;;;;;;;;;;;20.00;99.90;;;;;;5288651;28;19903;-89
2022/06/11 12:00:17;;;;;;;;;;;20.00;99.90;;;;;;5288842;28;19951;-83
2022/06/11 12:02:51;;;;;;;;;;;19.90;99.90;;;;;;5287613;28;19957;-81
2022/06/11 12:05:28;;;;;;;;;;;19.90;99.90;;;;;;5291204;28;19957;-82
2022/06/11 12:07:59;;;;;;;;;;;20.00;99.90;;;;;;5292597;28;20389;-80
2022/06/11 12:10:34;;;;;;;;;;;19.90;99.90;;;;;;5293707;28;19903;-88
2022/06/11 12:13:23;;;;;;;;;;;20.00;99.90;;;;;;5293796;28;19904;-81
2022/06/11 12:15:56;;;;;;;;;;;20.00;99.90;;;;;;5294009;28;19957;-91
2022/06/11 12:18:32;;;;;;;;;;;20.10;99.90;;;;;;5293941;28;19914;-89
2022/06/11 12:21:05;;;;;;;;;;;20.10;99.90;;;;;;5293676;27;19914;-83
2022/06/11 12:23:39;;;;;;;;;;;20.20;99.90;;;;;;5292673;28;20324;-92
2022/06/11 12:26:39;;;;;;;;;;;20.20;99.90;;;;;;5292704;28;19904;-84
2022/06/11 12:29:10;;;;;;;;;;;20.20;99.90;;;;;;5284455;28;19903;-84
2022/06/11 12:31:42;;;;;;;;;;;20.30;99.90;;;;;;5280845;28;20022;-88
2022/06/11 12:34:15;;;;;;;;;;;19.90;99.90;;;;;;5281722;28;19908;-83
2022/06/11 12:36:56;;;;;;;;;;;20.00;99.90;;;;;;5279474;28;20313;-84
2022/06/11 12:42:13;;;;;;;;;;;20.20;99.90;;;;;;5486149;23;19922;-85
2022/06/11 12:44:43;;;;;;;;;;;20.10;99.90;;;;;;5187774;28;19912;-81
2022/06/11 12:47:25;;;;;;;;;;;20.00;99.90;;;;;;5187460;28;19909;-82
2022/06/11 12:50:05;;;;;;;;;;;20.00;99.90;;;;;;5189044;28;19912;-83
2022/06/11 12:52:47;;;;;;;;;;;20.20;99.90;;;;;;5220814;28;19954;-87
2022/06/11 12:55:24;;;;;;;;;;;20.10;99.90;;;;;;5189192;28;19913;-82
2022/06/11 12:58:04;;;;;;;;;;;20.10;99.90;;;;;;5188829;28;19912;-84
2022/06/11 13:00:55;;;;;;;;;;;20.10;99.90;;;;;;5181711;28;19916;-81
2022/06/11 13:03:45;;;;;;;;;;;20.00;99.90;;;;;;5187425;28;19917;-81
2022/06/11 13:06:18;;;;;;;;;;;20.20;99.90;;;;;;5186927;28;19955;-84
2022/06/11 13:09:09;;;;;;;;;;;20.30;99.90;;;;;;5183371;28;19932;-83
2022/06/11 13:11:54;;;;;;;;;;;20.10;99.90;;;;;;5187338;28;19968;-83
2022/06/11 13:14:31;;;;;;;;;;;20.20;99.90;;;;;;5188809;28;19905;-84
2022/06/11 13:17:11;;;;;;;;;;;20.00;99.90;;;;;;5192621;28;20428;-82
2022/06/11 13:19:51;;;;;;;;;;;20.00;99.90;;;;;;5184944;28;19909;-84
2022/06/11 13:22:30;;;;;;;;;;;20.00;99.90;;;;;;5186961;28;20361;-86
2022/06/11 13:25:01;;;;;;;;;;;19.90;99.90;;;;;;5186072;28;19956;-85
2022/06/11 13:27:34;;;;;;;;;;;20.00;99.90;;;;;;5181575;28;20353;-82
2022/06/11 13:30:11;;;;;;;;;;;19.90;99.90;;;;;;5183170;28;19956;-84
2022/06/11 13:33:00;;;;;;;;;;;20.00;99.90;;;;;;5170825;28;19906;-88
2022/06/11 13:35:37;;;;;;;;;;;20.00;99.90;;;;;;5187837;28;19909;-84
2022/06/11 13:38:16;;;;;;;;;;;20.00;99.90;;;;;;5187816;28;19948;-84
2022/06/11 13:40:54;;;;;;;;;;;20.00;99.90;;;;;;5170926;28;19920;-81
2022/06/11 13:43:30;;;;;;;;;;;19.90;99.90;;;;;;5172464;28;20355;-87
2022/06/11 13:46:01;;;;;;;;;;;20.00;99.90;;;;;;5186624;28;19914;-82
2022/06/11 13:48:40;;;;;;;;;;;20.00;99.90;;;;;;5186969;28;19909;-87
2022/06/11 13:51:29;;;;;;;;;;;20.10;99.90;;;;;;5188109;28;19905;-82
2022/06/11 13:57:01;;;;;;;;;;;20.10;99.90;;;;;;5185484;28;19912;-84
2022/06/11 13:59:50;;;;;;;;;;;20.20;99.90;;;;;;5187848;28;20326;-84
2022/06/11 14:02:39;;;;;;;;;;;19.80;99.90;;;;;;5186151;28;19952;-85
2022/06/11 14:05:21;;;;;;;;;;;20.00;99.90;;;;;;5186559;28;19913;-84
2022/06/11 14:07:53;;;;;;;;;;;19.80;99.90;;;;;;5187495;28;20263;-88
2022/06/11 14:10:29;;;;;;;;;;;19.90;99.90;;;;;;5187905;28;19913;-85
2022/06/11 14:13:02;;;;;;;;;;;19.90;99.90;;;;;;5188387;28;20353;-87
2022/06/11 14:15:37;;;;;;;;;;;19.90;99.90;;;;;;5188233;28;19905;-86
2022/06/11 14:18:23;;;;;;;;;;;20.00;99.90;;;;;;5186104;28;19975;-85
2022/06/11 14:20:54;;;;;;;;;;;20.00;99.90;;;;;;5186211;28;19913;-87
2022/06/11 14:23:24;;;;;;;;;;;20.00;99.90;;;;;;5186241;28;20285;-86
2022/06/11 14:25:57;;;;;;;;;;;20.10;99.90;;;;;;5186259;28;19906;-86
2022/06/11 14:28:28;;;;;;;;;;;20.00;99.90;;;;;;5185628;28;20365;-85
2022/06/11 14:30:59;;;;;;;;;;;20.10;99.90;;;;;;5187404;28;19909;-89
2022/06/11 14:33:29;;;;;;;;;;;20.20;99.90;;;;;;5187572;28;19923;-87
2022/06/11 14:36:02;;;;;;;;;;;20.00;99.90;;;;;;5186374;28;19905;-87
2022/06/11 14:38:44;;;;;;;;;;;20.20;99.90;;;;;;5187283;28;19912;-84
2022/06/11 14:41:19;;;;;;;;;;;20.10;99.90;;;;;;5184914;28;19932;-82
2022/06/11 14:43:53;;;;;;;;;;;20.00;99.90;;;;;;5184604;28;19949;-83
2022/06/11 14:46:33;;;;;;;;;;;20.00;99.90;;;;;;5186218;28;19906;-83
2022/06/11 14:49:03;;;;;;;;;;;20.00;99.90;;;;;;5182817;28;19917;-86
2022/06/11 14:51:35;;;;;;;;;;;20.00;99.90;;;;;;5185997;28;19916;-84